| time (UTC) | temp F | wind direction | speed MPH | gust MPH | rain 1hr in | rain 24hr in | rain mn in | humidity % | barometer mb |
| 20260510141504 | 29 | 145 | 0.0 | 1.0 | 0.00 | 0.00 | 0.00 | 86 | 1020.6 |
| 20260510140004 | 27 | 144 | 0.0 | 3.0 | 0.00 | 0.00 | 0.00 | 89 | 1020.7 |
| 20260510134502 | 25 | 144 | 0.0 | 0.0 | 0.00 | 0.00 | 0.00 | 88 | 1020.7 |
| 20260510133105 | 25 | 144 | 0.0 | 0.0 | 0.00 | 0.00 | 0.00 | 86 | 1020.7 |
| 20260510131604 | 25 | 144 | 0.0 | 0.0 | 0.00 | 0.00 | 0.00 | 86 | 1020.7 |
| 20260510130058 | 25 | 144 | 0.0 | 0.0 | 0.00 | 0.00 | 0.00 | 85 | 1020.7 |
| 20260510124610 | 26 | 144 | 0.0 | 1.0 | 0.00 | 0.00 | 0.00 | 85 | 1020.6 |
| 20260510123055 | 26 | 144 | 0.0 | 0.0 | 0.00 | 0.00 | 0.00 | 84 | 1020.6 |
| 20260510121552 | 26 | 144 | 0.0 | 1.0 | 0.00 | 0.00 | 0.00 | 86 | 1020.4 |
| 20260510120053 | 26 | 144 | 0.0 | 1.0 | 0.00 | 0.00 | 0.00 | 84 | 1020.5 |
| 20260510114549 | 27 | 144 | 0.0 | 1.0 | 0.00 | 0.00 | 0.00 | 84 | 1020.4 |
| 20260510113056 | 27 | 144 | 0.0 | 3.0 | 0.00 | 0.00 | 0.00 | 82 | 1020.4 |
| 20260510111602 | 28 | 129 | 0.0 | 1.0 | 0.00 | 0.00 | 0.00 | 83 | 1020.3 |
| 20260510110047 | 28 | 130 | 0.0 | 0.0 | 0.00 | 0.00 | 0.00 | 83 | 1020.1 |
| 20260510104559 | 28 | 130 | 0.0 | 0.0 | 0.00 | 0.00 | 0.00 | 82 | 1020.2 |
| 20260510103041 | 28 | 142 | 0.0 | 1.0 | 0.00 | 0.00 | 0.00 | 79 | 1020.3 |
| 20260510101538 | 30 | 152 | 0.0 | 2.0 | 0.00 | 0.00 | 0.00 | 79 | 1020.2 |
| 20260510100035 | 29 | 152 | 0.0 | 1.0 | 0.00 | 0.00 | 0.00 | 80 | 1020.1 |
| 20260510094532 | 30 | 153 | 0.0 | 0.0 | 0.00 | 0.00 | 0.00 | 79 | 1020.1 |
| 20260510093029 | 30 | 150 | 0.0 | 0.0 | 0.00 | 0.00 | 0.00 | 76 | 1020.0 |
| 20260510091547 | 31 | 150 | 0.0 | 0.0 | 0.00 | 0.00 | 0.00 | 75 | 1019.9 |
| 20260510090030 | 31 | 153 | 0.0 | 1.0 | 0.00 | 0.00 | 0.00 | 77 | 1019.9 |
| 20260510084527 | 31 | 153 | 0.0 | 1.0 | 0.00 | 0.00 | 0.00 | 76 | 1019.6 |
| 20260510083022 | 31 | 153 | 0.0 | 0.0 | 0.00 | 0.00 | 0.00 | 74 | 1019.5 |
| 20260510081532 | 33 | 153 | 0.0 | 1.0 | 0.00 | 0.00 | 0.00 | 71 | 1019.6 |
| 20260510080016 | 34 | 151 | 0.0 | 1.0 | 0.00 | 0.00 | 0.00 | 70 | 1019.6 |
| 20260510074516 | 34 | 154 | 0.0 | 1.0 | 0.00 | 0.00 | 0.00 | 71 | 1019.5 |
| 20260510073022 | 34 | 142 | 0.0 | 0.0 | 0.00 | 0.00 | 0.00 | 69 | 1019.5 |
| 20260510071512 | 36 | 141 | 0.0 | 3.0 | 0.00 | 0.00 | 0.00 | 66 | 1019.4 |
| 20260510070011 | 37 | 128 | 0.0 | 3.0 | 0.00 | 0.00 | 0.00 | 66 | 1019.3 |
| 20260510064523 | 36 | 109 | 0.0 | 0.0 | 0.00 | 0.00 | 0.00 | 65 | 1019.2 |
| 20260510063004 | 37 | 108 | 0.0 | 1.0 | 0.00 | 0.00 | 0.00 | 63 | 1018.9 |
| 20260510061559 | 38 | 108 | 0.0 | 1.0 | 0.00 | 0.00 | 0.00 | 61 | 1018.8 |
| 20260510060057 | 38 | 116 | 0.0 | 2.0 | 0.00 | 0.00 | 0.00 | 61 | 1018.8 |
| 20260510054600 | 39 | 166 | 0.0 | 0.0 | 0.00 | 0.00 | 0.00 | 59 | 1018.6 |
| 20260510053054 | 40 | 187 | 0.0 | 1.0 | 0.00 | 0.00 | 0.00 | 57 | 1018.6 |
| 20260510051604 | 41 | 192 | 0.0 | 1.0 | 0.00 | 0.00 | 0.00 | 55 | 1018.4 |
| 20260510050052 | 42 | 157 | 0.0 | 3.0 | 0.00 | 0.00 | 0.00 | 53 | 1018.2 |
| 20260510044602 | 44 | 177 | 0.0 | 0.0 | 0.00 | 0.00 | 0.00 | 50 | 1018.2 |
| 20260510043049 | 46 | 35 | 0.0 | 2.0 | 0.00 | 0.00 | 0.00 | 45 | 1017.8 |
| 20260510041602 | 46 | 46 | 0.0 | 2.0 | 0.00 | 0.00 | 0.00 | 45 | 1017.8 |
| 20260510040047 | 46 | 355 | 0.0 | 2.0 | 0.00 | 0.00 | 0.00 | 45 | 1017.7 |
| 20260510034556 | 47 | 63 | 0.0 | 1.0 | 0.00 | 0.00 | 0.00 | 45 | 1017.2 |
| 20260510033048 | 48 | 69 | 0.0 | 3.0 | 0.00 | 0.00 | 0.00 | 42 | 1017.0 |
| 20260510031550 | 48 | 360 | 0.0 | 2.0 | 0.00 | 0.00 | 0.00 | 44 | 1016.5 |
| 20260510030054 | 50 | 17 | 1.0 | 3.0 | 0.00 | 0.00 | 0.00 | 42 | 1016.3 |
| 20260510024550 | 52 | 327 | 0.0 | 1.0 | 0.00 | 0.00 | 0.00 | 39 | 1016.1 |
| 20260510023044 | 56 | 325 | 0.0 | 1.0 | 0.00 | 0.00 | 0.00 | 34 | 1016.0 |
| 20260510021544 | 58 | 311 | 0.0 | 2.0 | 0.00 | 0.00 | 0.00 | 31 | 1015.6 |
| 20260510020043 | 59 | 360 | 1.0 | 5.0 | 0.00 | 0.00 | 0.00 | 28 | 1015.6 |
| 20260510014543 | 60 | 339 | 1.0 | 3.0 | 0.00 | 0.00 | 0.00 | 27 | 1015.7 |
| 20260510013050 | 61 | 322 | 0.0 | 7.0 | 0.00 | 0.00 | 0.00 | 28 | 1015.4 |
| 20260510011545 | 61 | 325 | 1.0 | 6.0 | 0.00 | 0.00 | 0.00 | 26 | 1015.6 |
| 20260510010042 | 62 | 321 | 1.0 | 5.0 | 0.00 | 0.00 | 0.00 | 26 | 1015.5 |
| 20260510004542 | 62 | 336 | 0.0 | 6.0 | 0.00 | 0.00 | 0.00 | 25 | 1015.4 |
| 20260510003052 | 62 | 288 | 1.0 | 6.0 | 0.00 | 0.00 | 0.00 | 25 | 1015.5 |
| 20260510001540 | 62 | 301 | 1.0 | 6.0 | 0.00 | 0.00 | 0.00 | 25 | 1015.5 |
| 20260510000040 | 61 | 292 | 2.0 | 5.0 | 0.00 | 0.00 | 0.00 | 25 | 1015.6 |
| 20260509234556 | 62 | 345 | 1.0 | 4.0 | 0.00 | 0.00 | 0.00 | 24 | 1015.6 |
| 20260509233045 | 62 | 259 | 2.0 | 11.0 | 0.00 | 0.00 | 0.00 | 23 | 1015.7 |
| 20260509231557 | 62 | 56 | 2.0 | 9.0 | 0.00 | 0.00 | 0.00 | 23 | 1015.6 |
| 20260509230038 | 62 | 116 | 1.0 | 7.0 | 0.00 | 0.00 | 0.00 | 24 | 1015.6 |
| 20260509224537 | 61 | 215 | 1.0 | 5.0 | 0.00 | 0.00 | 0.00 | 25 | 1015.6 |
| 20260509223037 | 62 | 256 | 2.0 | 8.0 | 0.00 | 0.00 | 0.00 | 23 | 1015.7 |
| 20260509221535 | 62 | 304 | 2.0 | 5.0 | 0.00 | 0.00 | 0.00 | 24 | 1015.9 |
| 20260509220038 | 62 | 265 | 2.0 | 8.0 | 0.00 | 0.00 | 0.00 | 23 | 1015.7 |
| 20260509214534 | 62 | 303 | 1.0 | 6.0 | 0.00 | 0.00 | 0.00 | 24 | 1015.9 |
| 20260509213033 | 62 | 302 | 1.0 | 10.0 | 0.00 | 0.00 | 0.00 | 26 | 1016.0 |
| 20260509211533 | 62 | 198 | 1.0 | 9.0 | 0.00 | 0.00 | 0.00 | 24 | 1016.1 |
| 20260509210031 | 62 | 351 | 2.0 | 7.0 | 0.00 | 0.00 | 0.00 | 26 | 1016.0 |
| 20260509204534 | 62 | 355 | 2.0 | 5.0 | 0.00 | 0.00 | 0.00 | 25 | 1016.1 |
| 20260509203035 | 61 | 226 | 1.0 | 7.0 | 0.00 | 0.00 | 0.00 | 27 | 1016.1 |
| 20260509201528 | 61 | 340 | 2.0 | 8.0 | 0.00 | 0.00 | 0.00 | 28 | 1016.3 |
| 20260509200026 | 61 | 327 | 2.0 | 8.0 | 0.00 | 0.00 | 0.00 | 28 | 1016.3 |
| 20260509194525 | 60 | 344 | 3.0 | 8.0 | 0.00 | 0.00 | 0.00 | 27 | 1016.4 |
| 20260509193022 | 59 | 310 | 2.0 | 5.0 | 0.00 | 0.00 | 0.00 | 26 | 1016.3 |
| 20260509191520 | 59 | 321 | 3.0 | 9.0 | 0.00 | 0.00 | 0.00 | 25 | 1016.6 |
| 20260509190019 | 58 | 210 | 1.0 | 6.0 | 0.00 | 0.00 | 0.00 | 29 | 1016.5 |
| 20260509184526 | 58 | 296 | 0.0 | 7.0 | 0.00 | 0.00 | 0.00 | 31 | 1016.6 |
| 20260509183027 | 57 | 332 | 1.0 | 8.0 | 0.00 | 0.00 | 0.00 | 30 | 1016.6 |
| 20260509181517 | 57 | 275 | 2.0 | 8.0 | 0.00 | 0.00 | 0.00 | 31 | 1016.6 |
| 20260509180018 | 57 | 289 | 2.0 | 9.0 | 0.00 | 0.00 | 0.00 | 33 | 1016.5 |
| 20260509174510 | 55 | 360 | 2.0 | 8.0 | 0.00 | 0.00 | 0.00 | 32 | 1016.5 |
| 20260509173014 | 55 | 360 | 1.0 | 6.0 | 0.00 | 0.00 | 0.00 | 35 | 1016.6 |
| 20260509171507 | 53 | 360 | 2.0 | 6.0 | 0.00 | 0.00 | 0.00 | 34 | 1016.5 |
| 20260509170002 | 52 | 313 | 0.0 | 4.0 | 0.00 | 0.00 | 0.00 | 38 | 1016.6 |
| 20260509164557 | 51 | 313 | 1.0 | 5.0 | 0.00 | 0.00 | 0.00 | 40 | 1016.7 |
| 20260509163103 | 50 | 274 | 0.0 | 4.0 | 0.00 | 0.00 | 0.00 | 42 | 1016.8 |
| 20260509161555 | 48 | 255 | 1.0 | 5.0 | 0.00 | 0.00 | 0.00 | 47 | 1016.9 |
| 20260509160046 | 46 | 360 | 0.0 | 4.0 | 0.00 | 0.00 | 0.00 | 51 | 1017.1 |
| 20260509154542 | 44 | 319 | 1.0 | 3.0 | 0.00 | 0.00 | 0.00 | 58 | 1017.2 |
| 20260509153042 | 41 | 169 | 0.0 | 3.0 | 0.00 | 0.00 | 0.00 | 64 | 1017.3 |
| 20260509151540 | 38 | 165 | 0.0 | 2.0 | 0.00 | 0.00 | 0.00 | 68 | 1017.5 |
| 20260509150037 | 35 | 166 | 0.0 | 1.0 | 0.00 | 0.00 | 0.00 | 73 | 1017.5 |
| 20260509144536 | 33 | 360 | 0.0 | 2.0 | 0.00 | 0.00 | 0.00 | 76 | 1017.6 |
| 20260509143046 | 31 | 360 | 0.0 | 1.0 | 0.00 | 0.00 | 0.00 | 81 | 1017.5 |
| 20260509141535 | 29 | 132 | 0.0 | 1.0 | 0.00 | 0.00 | 0.00 | 82 | 1017.6 |